This is the latest recevied weather packets stored in our database for station/object WX4ET. If no packets are shown the sender has not sent any weather packets the latest 1 day(s).
| Time | Temp. | Humidity | Pressure | Rain* | Wind** | Luminosity | Snow |
|---|---|---|---|---|---|---|---|
| 1778003517 | 24.44° C | 48% | 1009.1 hPa | 0 mm | 0.45 m/s, 323° | 697 W/m² | - |
| 1778003214 | 24.44° C | 48% | 1009.1 hPa | 0 mm | 1.34 m/s, 286° | 547 W/m² | - |
| 1778002910 | 25° C | 46% | 1009 hPa | 0 mm | 2.24 m/s, 293° | 636 W/m² | - |
| 1778002607 | 24.44° C | 47% | 1009.2 hPa | 0 mm | 3.13 m/s, 311° | 635 W/m² | - |
| 1778002304 | 24.44° C | 49% | 1009.5 hPa | 0 mm | 2.24 m/s, 205° | 489 W/m² | - |
| 1778002001 | 24.44° C | 48% | 1009.4 hPa | 0 mm | 1.79 m/s, 220° | 307 W/m² | - |
| 1778001698 | 24.44° C | 49% | 1009.5 hPa | 0 mm | 2.24 m/s, 302° | 650 W/m² | - |
| 1778001392 | 23.89° C | 48% | 1009.6 hPa | 0 mm | 1.79 m/s, 316° | 682 W/m² | - |
| 1778001090 | 24.44° C | 49% | 1009.7 hPa | 0 mm | 1.34 m/s, 296° | 367 W/m² | - |
| 1778000787 | 24.44° C | 47% | 1009.6 hPa | 0 mm | 2.24 m/s, 290° | 642 W/m² | - |
| 1778000483 | 23.89° C | 48% | 1009.9 hPa | 0 mm | 3.13 m/s, 295° | 395 W/m² | - |
| 1778000178 | 24.44° C | 47% | 1009.6 hPa | 0 mm | 3.13 m/s, 219° | 750 W/m² | - |
| 1777999874 | 25° C | 47% | 1009.7 hPa | 0 mm | 1.79 m/s, 258° | 671 W/m² | - |
| 1777999569 | 23.33° C | 51% | 1009.6 hPa | 0 mm | 1.79 m/s, 286° | 678 W/m² | - |
| 1777999268 | 23.89° C | 48% | 1009.6 hPa | 0 mm | 2.68 m/s, 256° | 400 W/m² | - |
| 1777998966 | 23.89° C | 47% | 1009.8 hPa | 0 mm | 2.24 m/s, 213° | 376 W/m² | - |
| 1777998663 | 23.89° C | 49% | 1009.8 hPa | 0 mm | 1.34 m/s, 273° | 484 W/m² | - |
| 1777998361 | 23.89° C | 46% | 1009.8 hPa | 0 mm | 1.79 m/s, 289° | 552 W/m² | - |
| 1777998058 | 23.89° C | 47% | 1009.9 hPa | 0 mm | 1.79 m/s, 280° | 572 W/m² | - |
| 1777997755 | 23.89° C | 46% | 1010 hPa | 0 mm | 3.13 m/s, 260° | 481 W/m² | - |
| 1777997452 | 23.33° C | 49% | 1010 hPa | 0 mm | 1.34 m/s, 300° | 530 W/m² | - |
| 1777997150 | 23.33° C | 47% | 1009.9 hPa | 0 mm | 3.13 m/s, 339° | 610 W/m² | - |
| 1777996847 | 23.33° C | 49% | 1010.1 hPa | 0 mm | 2.24 m/s, 282° | 600 W/m² | - |
| 1777996543 | 23.33° C | 49% | 1010.1 hPa | 0 mm | 0.45 m/s, 247° | 586 W/m² | - |
| 1777996239 | 23.33° C | 48% | 1010.2 hPa | 0 mm | 1.79 m/s, 292° | 553 W/m² | - |
* Rain latest hour (hover to see other rain measurements)
** Current wind speed in m/s (hover to see current wind gust speed)